Friday, October 20, 2017, 9:23 PM EDT
Back to Local

KHLG, Wheeling Ohio County Airport

Location: Wheeling, WV, United States Lat: 40.167
Local Time: 9:23 PM EDT ( 1:23 GMT) Lon: -80.65
Time Zone: US/Eastern Elev: 1194 ft

Show me the last for .
Show Coded

Time T Td Feel RH Dir Speed Gust Alt SLP Vis Weather Sky Remarks
2017-10-20 20:53 60 36 - 40 120° 5 - 30.24 30.24 10 CLR None
2017-10-20 19:53 63 38 - 39 110° 3 - 30.24 30.25 10 CLR 6-hr Min Temp (8pm): 62.1°F
6-hr Max Temp (8pm): 73.0°F
2017-10-20 18:53 66 33 - 29 - Calm - 30.23 30.23 10 CLR None
2017-10-20 17:53 70 35 - 27 - Calm - 30.24 30.24 10 CLR None
2017-10-20 16:53 72 35 - 25 Variable 3 - 30.24 30.24 10 CLR None
2017-10-20 15:53 72 35 - 25 - Calm - 30.25 30.24 10 CLR None
2017-10-20 14:53 71 33 - 24 - Calm - 30.26 30.25 10 CLR None
2017-10-20 13:53 70 35 - 27 360° 5 - 30.28 30.28 10 CLR 6-hr Min Temp (2pm): 46.9°F
6-hr Max Temp (2pm): 70.0°F
2017-10-20 12:53 67 37 - 33 350° 3 - 30.31 30.31 10 CLR None
2017-10-20 11:53 64 43 - 46 80° 6 - 30.32 30.32 10 CLR None
2017-10-20 10:53 61 44 - 53 60° 8 - 30.32 30.33 10 CLR None
2017-10-20 09:53 57 49 - 74 - Calm - 30.32 30.33 10 CLR None
2017-10-20 08:53 51 48 - 89 - Calm - 30.31 30.32 10 CLR None
2017-10-20 07:53 49 46 - 89 - Calm - 30.29 30.29 10 CLR 6-hr Min Temp (8am): 48.0°F
6-hr Max Temp (8am): 55.9°F
2017-10-20 06:53 51 46 - 82 - Calm - 30.26 30.27 10 CLR None
2017-10-20 05:53 53 47 - 79 250° 3 - 30.24 30.24 10 CLR None
2017-10-20 04:53 54 47 - 77 240° 3 - 30.22 30.22 10 CLR None
2017-10-20 03:53 54 46 - 74 220° 6 - 30.22 30.22 10 CLR None
2017-10-20 02:53 55 46 - 71 200° 5 - 30.21 30.21 10 CLR None
2017-10-20 01:53 56 46 - 69 210° 6 - 30.21 30.21 10 CLR 6-hr Min Temp (2am): 55.9°F
6-hr Max Temp (2am): 61.0°F
2017-10-20 00:53 57 46 - 66 230° 8 - 30.21 30.21 10 CLR 24-hr Min Temp (1am): 46.9°F
24-hr Max Temp (1am): 70.0°F
2017-10-19 23:53 58 45 - 61 230° 7 - 30.21 30.20 10 CLR None
2017-10-19 22:53 59 45 - 59 210° 8 - 30.20 30.20 10 CLR None
2017-10-19 21:53 60 45 - 57 200° 8 - 30.20 30.20 10 CLR None

Support USWX by starting your Amazon purchase here.